Cosgrove, Iowa
Current Conditions -  °F | °C
As of 7:19 AM on Sunday 23 Nov 2014 (Local Time) from KIOW Reporting Station
Overcast Overcast  
Wind Chill: 50°   Ceiling: 1200
Heat Index: 50°   Visibility: 9mi
Dew Point: 49°   Wind: 7mph
Humidity: 96%   Direction: 140°SE
Pressure: 29.62"   Gusts: NA
Location:  41.6512°N, 91.7745°W
Report Text: KIOW 231319Z AUTO 14006KT 9SM BKN012 OVC024 10/09 A2962 RMK AO2 T01000094
Loading
Personal Weather Stations






























Interactive Weather Map New forecast layout! Learn more

10-Day Weather Forecast

Advertisements
Track Severe Weather on mobile